Flight Track Log - Related Links

Times and Time Zones

All times are in EDT time to prevent confusion due to time zone crossing. See the N668DN flight status page for this flight to view local times or setup timezone preferences in your user account.

Time Position Orientation Groundspeed Altitude Reporting Facility
EDT Latitude Longitude Course Direction KTS MPH feet Rate Location/Type
Sat 03:30:00 PM 10.9484 -85.5869 353° North  Level FlightAware Approximate
Sat 03:31:00 PM 11.0668 -85.6011 353° North  Level FlightAware Approximate
Sat 03:32:00 PM 11.1852 -85.6153 353° North  Level FlightAware Approximate
Sat 03:33:00 PM 11.3035 -85.6295 353° North  Level FlightAware Approximate
Sat 03:34:00 PM 11.4219 -85.6437 353° North  Level FlightAware Approximate
Sat 03:35:00 PM 11.5403 -85.6579 353° North  Level FlightAware Approximate
Sat 03:36:00 PM 11.6587 -85.6722 353° North  Level FlightAware Approximate
Sat 03:37:00 PM 11.7770 -85.6864 353° North  Level FlightAware Approximate
Sat 03:38:00 PM 11.8954 -85.7007 353° North  Level FlightAware Approximate
Sat 03:39:00 PM 12.0138 -85.7150 353° North  Level FlightAware Approximate
Sat 03:40:00 PM 12.1321 -85.7292 353° North  Level FlightAware Approximate
Sat 03:41:00 PM 12.2505 -85.7435 353° North  Level FlightAware Approximate
Sat 03:42:00 PM 12.3689 -85.7579 353° North  Level FlightAware Approximate
Sat 03:43:00 PM 12.4872 -85.7722 353° North  Level FlightAware Approximate
Sat 03:44:00 PM 12.6056 -85.7865 353° North  Level FlightAware Approximate
Sat 03:45:00 PM 12.7240 -85.8009 353° North  Level FlightAware Approximate
Sat 03:46:00 PM 12.8312 -85.8142 353° North  Level FlightAware Approximate
Sat 03:47:00 PM 12.9495 -85.8290 353° North  Level FlightAware Approximate
Sat 03:48:00 PM 13.0678 -85.8437 353° North  Level FlightAware Approximate
Sat 03:49:00 PM 13.1862 -85.8585 353° North  Level FlightAware Approximate
Sat 03:50:00 PM 13.3045 -85.8732 353° North  Level FlightAware Approximate
Sat 03:51:00 PM 13.4228 -85.8880 353° North  Level FlightAware Approximate
Sat 03:52:00 PM 13.5411 -85.9028 353° North  Level FlightAware Approximate
Sat 03:53:00 PM 13.6594 -85.9176 353° North  Level FlightAware Approximate
Sat 03:54:00 PM 13.7778 -85.9325 353° North  Level FlightAware Approximate
Sat 03:55:00 PM 13.8961 -85.9473 353° North  Level FlightAware Approximate
Sat 03:56:00 PM 14.0144 -85.9622 353° North  Level FlightAware Approximate
Sat 03:57:00 PM 14.1327 -85.9768 353° North  Level FlightAware Approximate
Sat 03:58:00 PM 14.2511 -85.9914 353° North  Level FlightAware Approximate
Sat 03:59:00 PM 14.3694 -86.0059 353° North  Level FlightAware Approximate
Sat 04:00:00 PM 14.4878 -86.0205 353° North  Level FlightAware Approximate
Sat 04:01:00 PM 14.6061 -86.0351 353° North  Level FlightAware Approximate
Sat 04:02:00 PM 14.7245 -86.0497 353° North  Level FlightAware Approximate
Sat 04:03:00 PM 14.8428 -86.0643 353° North  Level FlightAware Approximate
Sat 04:04:00 PM 14.9612 -86.0789 353° North  Level FlightAware Approximate
Sat 04:05:00 PM 15.0795 -86.0936 353° North  Level FlightAware Approximate
Sat 04:06:00 PM 15.1979 -86.1083 353° North  Level FlightAware Approximate
Sat 04:07:00 PM 15.3162 -86.1229 353° North  Level FlightAware Approximate
Sat 04:08:00 PM 15.4346 -86.1373 354° North  Level FlightAware Approximate
Sat 04:09:00 PM 15.5531 -86.1508 354° North  Level FlightAware Approximate
Sat 04:10:00 PM 15.6716 -86.1644 354° North  Level FlightAware Approximate
Sat 04:11:00 PM 15.7900 -86.1779 354° North  Level FlightAware Approximate
Sat 04:12:00 PM 15.9085 -86.1915 354° North  Level FlightAware Approximate
Sat 04:13:00 PM 16.0270 -86.2051 354° North  Level FlightAware Approximate
Sat 04:14:00 PM 16.1454 -86.2188 354° North  Level FlightAware Approximate
Sat 04:15:00 PM 16.2639 -86.2324 354° North  Level FlightAware Approximate
Sat 04:16:00 PM 16.3824 -86.2460 354° North  Level FlightAware Approximate
Sat 04:17:00 PM 16.5008 -86.2607 353° North  Level FlightAware Approximate
Sat 04:18:00 PM 16.6191 -86.2757 353° North  Level FlightAware Approximate
Sat 04:19:00 PM 16.7374 -86.2907 353° North  Level FlightAware Approximate
Sat 04:20:00 PM 16.8557 -86.3057 353° North  Level FlightAware Approximate
Sat 04:21:00 PM 16.9740 -86.3208 353° North  Level FlightAware Approximate
Sat 04:22:00 PM 17.0924 -86.3359 353° North  Level FlightAware Approximate
Sat 04:23:00 PM 17.2107 -86.3510 353° North  Level FlightAware Approximate
Sat 04:24:00 PM 17.3290 -86.3661 353° North  Level FlightAware Approximate
Sat 04:25:00 PM 17.4473 -86.3812 353° North  Level FlightAware Approximate
Sat 04:26:00 PM 17.5656 -86.3964 353° North  Level FlightAware Approximate
Sat 04:27:00 PM 17.6839 -86.4116 353° North  Level FlightAware Approximate
Sat 04:28:00 PM 17.8022 -86.4268 353° North  Level FlightAware Approximate
Sat 04:29:00 PM 17.9205 -86.4420 353° North  Level FlightAware Approximate
Sat 04:30:00 PM 18.0388 -86.4572 353° North  Level FlightAware Approximate
Sat 04:31:00 PM 18.1571 -86.4725 353° North  Level FlightAware Approximate
Sat 04:32:00 PM 18.2754 -86.4878 353° North  Level FlightAware Approximate
Sat 04:33:00 PM 18.3937 -86.5031 353° North  Level FlightAware Approximate
Sat 04:34:00 PM 18.5120 -86.5184 353° North  Level FlightAware Approximate
Sat 04:35:00 PM 18.6303 -86.5338 353° North  Level FlightAware Approximate
Sat 04:36:00 PM 18.7486 -86.5491 353° North  Level FlightAware Approximate
Sat 04:37:00 PM 18.8669 -86.5645 353° North  Level FlightAware Approximate
Sat 04:38:00 PM 18.9852 -86.5799 353° North  Level FlightAware Approximate
Sat 04:39:00 PM 19.1035 -86.5954 353° North  Level FlightAware Approximate
Sat 04:40:00 PM 19.2218 -86.6108 353° North  Level FlightAware Approximate
Sat 04:41:00 PM 19.3381 -86.6360 353° North  Level FlightAware Approximate
Sat 04:42:00 PM 19.4565 -86.6510 353° North  Level FlightAware Approximate
Sat 04:43:00 PM 19.5748 -86.6659 353° North  Level FlightAware Approximate
Sat 04:44:00 PM 19.6932 -86.6809 353° North  Level FlightAware Approximate
Sat 04:45:00 PM 19.8115 -86.6959 353° North  Level FlightAware Approximate
Sat 04:46:00 PM 19.9299 -86.7109 353° North  Level FlightAware Approximate
Sat 04:47:00 PM 20.0482 -86.7260 353° North  Level FlightAware Approximate
Sat 04:48:00 PM 20.1666 -86.7411 353° North  Level FlightAware Approximate
Sat 04:49:00 PM 20.2849 -86.7561 353° North  Level FlightAware Approximate
Sat 04:50:00 PM 20.4033 -86.7713 353° North  Level FlightAware Approximate
Sat 04:51:00 PM 20.5216 -86.7864 353° North  Level FlightAware Approximate
Sat 04:52:00 PM 20.6399 -86.8016 353° North  Level FlightAware Approximate
Sat 04:53:00 PM 20.7583 -86.8168 353° North  Level FlightAware Approximate
Sat 04:54:00 PM 20.8766 -86.8320 353° North  Level FlightAware Approximate
Sat 04:55:00 PM 20.9950 -86.8472 353° North  Level FlightAware Approximate
Sat 04:56:00 PM 21.1126 -86.8326 10° North  Level FlightAware Approximate
Sat 04:57:00 PM 21.2296 -86.8086 14° North  Level FlightAware Approximate
Sat 04:58:00 PM 21.3451 -86.7771 14° North  Level FlightAware Approximate
Sat 04:59:00 PM 21.4614 -86.7490 12° North  Level FlightAware Approximate
Sat 05:00:00 PM 21.5780 -86.7225 12° North  Level FlightAware Approximate
Sat 05:01:00 PM 21.6946 -86.6959 12° North  Level FlightAware Approximate
Sat 05:02:00 PM 21.8114 -86.6701 11° North  Level FlightAware Approximate
Sat 05:03:00 PM 21.9282 -86.6449 11° North  Level FlightAware Approximate
Sat 05:04:00 PM 22.0451 -86.6197 11° North  Level FlightAware Approximate
Sat 05:05:00 PM 22.1620 -86.5944 11° North  Level FlightAware Approximate
Sat 05:06:00 PM 22.2789 -86.5691 11° North  Level FlightAware Approximate
Sat 05:07:00 PM 22.3956 -86.5431 12° North  Level FlightAware Approximate
Sat 05:08:00 PM 22.5120 -86.5155 12° North  Level FlightAware Approximate
Sat 05:09:00 PM 22.6313 -86.4872 12° North  Level FlightAware Approximate
Sat 05:10:00 PM 22.7505 -86.4588 12° North  Level FlightAware Approximate
Sat 05:11:00 PM 22.8697 -86.4303 12° North  Level FlightAware Approximate
Sat 05:12:00 PM 22.9889 -86.4018 12° North  Level FlightAware Approximate
Sat 05:13:00 PM 23.1081 -86.3733 12° North  Level FlightAware Approximate
Sat 05:14:00 PM 23.2273 -86.3447 12° North  Level FlightAware Approximate
Sat 05:15:00 PM 23.3465 -86.3161 12° North  Level FlightAware Approximate
Sat 05:16:00 PM 23.4656 -86.2874 12° North  Level FlightAware Approximate
Sat 05:17:00 PM 23.5848 -86.2587 12° North  Level FlightAware Approximate
Sat 05:18:00 PM 23.7040 -86.2299 12° North  Level FlightAware Approximate
Sat 05:19:00 PM 23.8232 -86.2010 12° North  Level FlightAware Approximate
Sat 05:20:00 PM 23.9423 -86.1721 12° North  Level FlightAware Approximate
Sat 05:20:13 PM 24.0939 -86.1283 30° Northeast 446 513 35,000  Level Houston Center
Sat 05:21:00 PM 24.0586 -86.1349 29° Northeast  Level FlightAware Approximate
Sat 05:21:14 PM 24.2125 -86.0572 29° Northeast 475 547 35,000  Level Houston Center
Sat 05:22:00 PM 24.1657 -86.0707 29° Northeast  Level FlightAware Approximate
Sat 05:22:16 PM 24.3289 -85.9817 31° Northeast 478 550 35,000  Level Houston Center
Sat 05:23:00 PM 24.2727 -86.0064 29° Northeast  Level FlightAware Approximate
Sat 05:23:18 PM 24.4506 -85.9069 29° Northeast 484 557 35,000  Level Houston Center
Sat 05:24:00 PM 24.3787 -85.9400 30° Northeast  Level FlightAware Approximate
Sat 05:24:20 PM 24.5667 -85.8261 32° Northeast 490 564 35,000  Level Houston Center
Sat 05:25:00 PM 24.4846 -85.8732 30° Northeast  Level FlightAware Approximate
Sat 05:25:22 PM 24.6817 -85.7467 32° Northeast 491 565 35,000  Level Houston Center
Sat 05:26:23 PM 24.8247 -85.6528 31° Northeast 492 566 35,000  Level Houston Center
Sat 05:27:25 PM 24.9397 -85.5747 32° Northeast 491 565 35,000  Level Houston Center
Sat 05:28:27 PM 25.0553 -85.4950 32° Northeast 490 564 35,000  Level Houston Center
Sat 05:29:29 PM 25.1689 -85.4167 32° Northeast 489 563 35,000 488 Level Houston Center
Sat 05:30:30 PM 25.2781 -85.3381 33° Northeast 481 554 36,000 956 Climbing Houston Center
Sat 05:31:22 PM 25.3906 -85.2647 30° Northeast 501 577 36,800 536 Climbing Miami Center
Sat 05:32:22 PM 25.5033 -85.1900 31° Northeast 487 560 37,000 101 Climbing Miami Center
Sat 05:33:21 PM 25.6139 -85.1125 32° Northeast 486 559 37,000  Level Miami Center
Sat 05:34:22 PM 25.7269 -85.0328 32° Northeast 481 554 37,000  Level Miami Center
Sat 05:35:21 PM 25.8464 -84.9442 34° Northeast 472 543 37,000  Level Miami Center
Sat 05:36:21 PM 25.9686 -84.8833 24° Northeast 472 543 37,000  Level Miami Center
Sat 05:37:22 PM 26.0917 -84.8822 360° North 447 514 37,000  Level Miami Center
Sat 05:38:21 PM 26.2103 -84.8858 358° North 432 497 37,000  Level Miami Center
Sat 05:39:21 PM 26.3372 -84.8919 358° North 432 497 37,000  Level Miami Center
Sat 05:40:21 PM 26.4578 -84.8978 358° North 427 491 37,000  Level Miami Center
Sat 05:41:21 PM 26.5783 -84.9039 357° North 427 491 37,000  Level Miami Center
Sat 05:42:21 PM 26.6908 -84.9069 359° North 427 491 37,000  Level Miami Center
Sat 05:43:22 PM 26.8117 -84.9106 358° North 425 489 37,000  Level Miami Center
Sat 05:44:22 PM 26.9322 -84.9167 357° North 425 489 37,000  Level Miami Center
Sat 05:45:22 PM 27.0631 -84.9258 356° North 425 489 37,000  Level Miami Center
Sat 05:46:22 PM 27.1814 -84.9317 357° North 440 506 37,000  Level Miami Center
Sat 05:47:22 PM 27.3042 -84.9356 358° North 440 506 37,000  Level Miami Center
Sat 05:49:07 PM 27.5139 -84.9442 358° North 447 514 37,000  Level Jacksonville Center
Sat 05:50:07 PM 27.6431 -84.9561 355° North 426 490 37,000  Level Jacksonville Center
Sat 05:51:07 PM 27.7661 -84.9586 359° North 426 490 37,000  Level Jacksonville Center
Sat 05:52:07 PM 27.8869 -84.9658 357° North 431 496 37,000  Level Jacksonville Center
Sat 05:53:07 PM 28.0100 -84.9683 359° North 436 502 37,000  Level Jacksonville Center
Sat 05:54:07 PM 28.1331 -84.9731 358° North 436 502 37,000  Level Jacksonville Center
Sat 05:55:07 PM 28.2561 -84.9781 358° North 436 502 37,000  Level Jacksonville Center
Sat 05:56:07 PM 28.3792 -84.9853 357° North 436 502 37,000  Level Jacksonville Center
Sat 05:57:07 PM 28.5022 -84.9903 358° North 436 502 37,000  Level Jacksonville Center
Sat 05:58:07 PM 28.6253 -84.9953 358° North 441 507 37,000  Level Jacksonville Center
Sat 05:59:07 PM 28.7483 -85.0025 357° North 441 507 37,000  Level Jacksonville Center
Sat 06:00:07 PM 28.8733 -85.0097 357° North 441 507 37,000  Level Jacksonville Center
Sat 06:01:07 PM 28.9964 -85.0100 360° North 436 502 37,000  Level Jacksonville Center
Sat 06:02:07 PM 29.1194 -85.0175 357° North 441 507 37,000  Level Jacksonville Center
Sat 06:03:07 PM 29.2425 -85.0225 358° North 441 507 37,000  Level Jacksonville Center
Sat 06:04:07 PM 29.3678 -85.0300 357° North 441 507 37,000  Level Jacksonville Center
Sat 06:05:07 PM 29.4928 -85.0328 359° North 441 507 37,000  Level Jacksonville Center
Sat 06:06:07 PM 29.6158 -85.0378 358° North 441 507 37,000  Level Jacksonville Center
Sat 06:07:07 PM 29.7389 -85.0453 357° North 441 507 37,000 -50 Level Jacksonville Center
Sat 06:08:07 PM 29.8661 -85.0528 357° North 441 507 36,900 -750 Descending Jacksonville Center
Sat 06:09:07 PM 29.9914 -85.0581 358° North 441 507 35,500 -1,300 Descending Jacksonville Center
Sat 06:10:07 PM 30.1186 -85.0633 358° North 441 507 34,300 -750 Descending Jacksonville Center
Sat 06:11:07 PM 30.2458 -85.0686 358° North 447 514 34,000 -150 Descending Jacksonville Center
Sat 06:12:07 PM 30.3753 -85.0764 357° North 452 520 34,000  Level Jacksonville Center
Sat 06:13:07 PM 30.5044 -85.0817 358° North 459 528 34,000  Level Jacksonville Center
Sat 06:14:07 PM 30.6339 -85.0872 358° North 459 528 34,000  Level Jacksonville Center
Sat 06:15:07 PM 30.7653 -85.0950 357° North 459 528 34,000  Level Jacksonville Center
Sat 06:16:07 PM 30.8925 -85.1003 358° North 459 528 34,000  Level Jacksonville Center
Sat 06:17:07 PM 31.0239 -85.1083 357° North 459 528 34,000  Level Jacksonville Center
Sat 06:19:34 PM 31.3369 -85.1231 358° North 460 529 34,000  Level Atlanta Center
Sat 06:20:34 PM 31.4622 -85.1294 358° North 460 529 34,000  Level Atlanta Center
Sat 06:21:34 PM 31.5894 -85.1358 358° North 455 524 34,000 -50 Level Atlanta Center
Sat 06:22:34 PM 31.7042 -85.1397 358° North 455 524 33,900 -950 Descending Atlanta Center
Sat 06:23:34 PM 31.8336 -85.1461 358° North 455 524 32,100 -1,750 Descending Atlanta Center
Sat 06:24:34 PM 31.9669 -85.1503 358° North 460 529 30,400 -1,950 Descending Atlanta Center
Sat 06:25:34 PM 32.1006 -85.1594 357° North 470 541 28,200 -1,800 Descending Atlanta Center
Sat 06:26:34 PM 32.2278 -85.1633 359° North 470 541 26,800 -2,000 Descending Atlanta Center
Sat 06:27:34 PM 32.3550 -85.1700 357° North 457 526 24,200 -2,600 Descending Atlanta Center
Sat 06:28:34 PM 32.4803 -85.1789 357° North 446 513 21,600 -2,550 Descending Atlanta Center
Sat 06:29:34 PM 32.6033 -85.1831 358° North 441 507 19,100 -2,400 Descending Atlanta Center
Sat 06:30:34 PM 32.7222 -85.1894 357° North 436 502 16,800 -2,050 Descending Atlanta Center
Sat 06:31:34 PM 32.8453 -85.1936 358° North 436 502 15,000 -2,000 Descending Atlanta Center
Sat 06:32:34 PM 32.9667 -85.1853 North 436 502 12,800 -1,500 Descending Atlanta Center
Sat 06:33:34 PM 33.0672 -85.1194 29° Northeast 420 483 12,000 -350 Descending Atlanta Center
Sat 06:34:34 PM 33.1492 -85.0536 34° Northeast 371 427 12,100 -250 Climbing Atlanta Center
Sat 06:35:34 PM 33.2250 -84.9800 39° Northeast 335 386 11,500 -900 Descending Atlanta Center
Sat 06:36:34 PM 33.2861 -84.9011 47° Northeast 315 362 10,300 -1,200 Descending Atlanta Center
Sat 06:37:34 PM 33.3717 -84.9144 353° North 271 312 9,100 -1,150 Descending Atlanta Center
Sat 06:38:34 PM 33.4572 -84.9203 357° North 285 328 8,000 -550 Descending Atlanta Center
Sat 06:39:34 PM 33.5406 -84.9261 357° North 299 344 8,000  Level Atlanta Center
Sat 06:40:34 PM 33.6094 -84.9267 360° North 271 312 8,000 50 Level Atlanta Center
Sat 06:41:34 PM 33.6308 -84.8722 65° Northeast 168 193 8,100 -76 Climbing Atlanta Center
Sat 06:41:53 PM 33.6333 -84.8500 82° East 188 216 7,900 -835 Descending Atlanta TRACON
Sat 06:42:53 PM 33.6333 -84.7833 90° East 175 201 7,000 -1,000 Descending Atlanta TRACON
Sat 06:43:53 PM 33.6333 -84.7333 90° East 169 194 5,900 -1,100 Descending Atlanta TRACON
Sat 06:44:53 PM 33.6333 -84.6833 90° East 160 184 4,800 -1,000 Descending Atlanta TRACON
Sat 06:45:53 PM 33.6333 -84.6333 90° East 162 186 3,900 -850 Descending Atlanta TRACON
Sat 06:46:53 PM 33.6333 -84.5667 90° East 155 178 3,100 -800 Descending Atlanta TRACON
Sat 06:47:53 PM 33.6333 -84.5167 90° East 145 167 2,300 -750 Descending Atlanta TRACON
Sat 06:48:53 PM 33.6333 -84.4833 90° East 123 142 1,600 -700 Descending Atlanta TRACON

Login

Don't have an account? Register now (free) for customized features, flight alerts, and more!